sensor_id;sensor_type;location;lat;lon;timestamp;P1;durP1;ratioP1;P2;durP2;ratioP2
67930;SDS011;63902;52.000;5.954;2023-05-06T00:00:59;9.52;;;7.07;;
67930;SDS011;63902;52.000;5.954;2023-05-06T00:02:00;11.60;;;6.80;;
67930;SDS011;63902;52.000;5.954;2023-05-06T00:03:00;10.77;;;7.20;;
67930;SDS011;63902;52.000;5.954;2023-05-06T00:04:01;13.15;;;6.80;;
67930;SDS011;63902;52.000;5.954;2023-05-06T00:05:01;9.55;;;6.35;;
67930;SDS011;63902;52.000;5.954;2023-05-06T00:06:02;10.45;;;6.80;;
67930;SDS011;63902;52.000;5.954;2023-05-06T00:07:02;11.40;;;6.55;;
67930;SDS011;63902;52.000;5.954;2023-05-06T00:08:03;10.48;;;6.47;;
67930;SDS011;63902;52.000;5.954;2023-05-06T00:09:04;10.52;;;6.47;;
67930;SDS011;63902;52.000;5.954;2023-05-06T00:10:04;10.98;;;7.22;;
67930;SDS011;63902;52.000;5.954;2023-05-06T00:11:05;9.32;;;6.68;;
67930;SDS011;63902;52.000;5.954;2023-05-06T00:12:07;9.55;;;6.43;;
67930;SDS011;63902;52.000;5.954;2023-05-06T00:13:08;10.57;;;6.55;;
67930;SDS011;63902;52.000;5.954;2023-05-06T00:14:08;11.30;;;7.32;;
67930;SDS011;63902;52.000;5.954;2023-05-06T00:15:09;10.10;;;7.03;;
67930;SDS011;63902;52.000;5.954;2023-05-06T00:16:10;14.93;;;7.68;;
67930;SDS011;63902;52.000;5.954;2023-05-06T00:17:11;10.10;;;7.07;;
67930;SDS011;63902;52.000;5.954;2023-05-06T00:18:11;10.40;;;7.47;;
67930;SDS011;63902;52.000;5.954;2023-05-06T00:19:12;10.23;;;7.00;;
67930;SDS011;63902;52.000;5.954;2023-05-06T00:20:12;10.48;;;6.88;;
67930;SDS011;63902;52.000;5.954;2023-05-06T00:21:13;10.65;;;7.35;;
67930;SDS011;63902;52.000;5.954;2023-05-06T00:22:13;11.40;;;6.97;;
67930;SDS011;63902;52.000;5.954;2023-05-06T00:23:14;10.23;;;6.68;;
67930;SDS011;63902;52.000;5.954;2023-05-06T00:24:14;9.60;;;6.50;;
67930;SDS011;63902;52.000;5.954;2023-05-06T00:25:15;11.80;;;7.97;;
67930;SDS011;63902;52.000;5.954;2023-05-06T00:26:15;12.07;;;7.32;;
67930;SDS011;63902;52.000;5.954;2023-05-06T00:27:17;14.50;;;7.28;;
67930;SDS011;63902;52.000;5.954;2023-05-06T00:28:17;11.07;;;7.72;;
67930;SDS011;63902;52.000;5.954;2023-05-06T00:29:18;11.57;;;6.95;;
67930;SDS011;63902;52.000;5.954;2023-05-06T00:30:18;12.98;;;7.45;;
67930;SDS011;63902;52.000;5.954;2023-05-06T00:31:19;9.43;;;6.85;;
67930;SDS011;63902;52.000;5.954;2023-05-06T00:32:19;13.45;;;7.47;;
67930;SDS011;63902;52.000;5.954;2023-05-06T00:33:20;12.70;;;7.30;;
67930;SDS011;63902;52.000;5.954;2023-05-06T00:34:20;10.60;;;7.30;;
67930;SDS011;63902;52.000;5.954;2023-05-06T00:35:21;12.77;;;7.53;;
67930;SDS011;63902;52.000;5.954;2023-05-06T00:36:21;12.63;;;7.68;;
67930;SDS011;63902;52.000;5.954;2023-05-06T00:37:22;12.32;;;8.43;;
67930;SDS011;63902;52.000;5.954;2023-05-06T00:38:22;11.65;;;7.70;;
67930;SDS011;63902;52.000;5.954;2023-05-06T00:39:23;11.65;;;7.82;;
67930;SDS011;63902;52.000;5.954;2023-05-06T00:40:23;11.55;;;8.13;;
67930;SDS011;63902;52.000;5.954;2023-05-06T00:41:24;11.48;;;7.88;;
67930;SDS011;63902;52.000;5.954;2023-05-06T00:42:26;13.10;;;7.13;;
67930;SDS011;63902;52.000;5.954;2023-05-06T00:43:26;14.02;;;7.40;;
67930;SDS011;63902;52.000;5.954;2023-05-06T00:44:27;10.38;;;7.13;;
67930;SDS011;63902;52.000;5.954;2023-05-06T00:45:27;10.68;;;7.20;;
67930;SDS011;63902;52.000;5.954;2023-05-06T00:46:28;12.90;;;8.25;;
67930;SDS011;63902;52.000;5.954;2023-05-06T00:47:28;13.10;;;8.38;;
67930;SDS011;63902;52.000;5.954;2023-05-06T00:48:29;11.90;;;7.63;;
67930;SDS011;63902;52.000;5.954;2023-05-06T00:49:30;10.95;;;7.65;;
67930;SDS011;63902;52.000;5.954;2023-05-06T00:50:31;12.52;;;7.85;;
67930;SDS011;63902;52.000;5.954;2023-05-06T00:51:32;14.35;;;8.10;;
67930;SDS011;63902;52.000;5.954;2023-05-06T00:52:33;11.70;;;8.15;;
67930;SDS011;63902;52.000;5.954;2023-05-06T00:53:33;12.30;;;8.10;;
67930;SDS011;63902;52.000;5.954;2023-05-06T00:54:34;13.05;;;7.72;;
67930;SDS011;63902;52.000;5.954;2023-05-06T00:55:35;11.82;;;7.72;;
67930;SDS011;63902;52.000;5.954;2023-05-06T00:56:37;10.82;;;7.40;;
67930;SDS011;63902;52.000;5.954;2023-05-06T00:57:39;14.15;;;7.78;;
67930;SDS011;63902;52.000;5.954;2023-05-06T00:58:39;10.80;;;7.78;;
67930;SDS011;63902;52.000;5.954;2023-05-06T00:59:40;14.68;;;8.35;;
67930;SDS011;63902;52.000;5.954;2023-05-06T01:00:41;12.95;;;8.38;;
67930;SDS011;63902;52.000;5.954;2023-05-06T01:01:42;12.27;;;7.97;;
67930;SDS011;63902;52.000;5.954;2023-05-06T01:02:42;12.45;;;7.95;;
67930;SDS011;63902;52.000;5.954;2023-05-06T01:03:43;15.75;;;8.25;;
67930;SDS011;63902;52.000;5.954;2023-05-06T01:04:43;15.23;;;8.43;;
67930;SDS011;63902;52.000;5.954;2023-05-06T01:05:46;10.45;;;7.20;;
67930;SDS011;63902;52.000;5.954;2023-05-06T01:06:54;16.17;;;8.73;;
67930;SDS011;63902;52.000;5.954;2023-05-06T01:08:05;13.60;;;7.60;;
67930;SDS011;63902;52.000;5.954;2023-05-06T01:09:13;12.95;;;8.23;;
67930;SDS011;63902;52.000;5.954;2023-05-06T01:10:20;12.25;;;7.97;;
67930;SDS011;63902;52.000;5.954;2023-05-06T01:11:28;10.23;;;7.80;;
67930;SDS011;63902;52.000;5.954;2023-05-06T01:12:45;11.75;;;7.57;;
67930;SDS011;63902;52.000;5.954;2023-05-06T01:13:55;14.52;;;9.98;;
67930;SDS011;63902;52.000;5.954;2023-05-06T01:15:00;14.35;;;9.10;;
67930;SDS011;63902;52.000;5.954;2023-05-06T01:16:06;15.43;;;8.85;;
67930;SDS011;63902;52.000;5.954;2023-05-06T01:17:09;15.02;;;9.20;;
67930;SDS011;63902;52.000;5.954;2023-05-06T01:18:12;12.60;;;9.02;;
67930;SDS011;63902;52.000;5.954;2023-05-06T01:19:17;16.80;;;9.70;;
67930;SDS011;63902;52.000;5.954;2023-05-06T01:20:32;14.63;;;8.55;;
67930;SDS011;63902;52.000;5.954;2023-05-06T01:21:33;12.35;;;9.38;;
67930;SDS011;63902;52.000;5.954;2023-05-06T01:22:35;16.83;;;9.93;;
67930;SDS011;63902;52.000;5.954;2023-05-06T01:23:53;13.32;;;9.32;;
67930;SDS011;63902;52.000;5.954;2023-05-06T01:24:54;15.55;;;9.20;;
67930;SDS011;63902;52.000;5.954;2023-05-06T01:25:55;14.75;;;9.18;;
67930;SDS011;63902;52.000;5.954;2023-05-06T01:26:55;13.95;;;9.00;;
67930;SDS011;63902;52.000;5.954;2023-05-06T01:27:56;16.70;;;9.93;;
67930;SDS011;63902;52.000;5.954;2023-05-06T01:28:56;15.88;;;9.77;;
67930;SDS011;63902;52.000;5.954;2023-05-06T01:29:57;12.80;;;8.98;;
67930;SDS011;63902;52.000;5.954;2023-05-06T01:30:59;15.85;;;9.40;;
67930;SDS011;63902;52.000;5.954;2023-05-06T01:32:12;14.25;;;9.55;;
67930;SDS011;63902;52.000;5.954;2023-05-06T01:33:31;20.50;;;9.95;;
67930;SDS011;63902;52.000;5.954;2023-05-06T01:34:37;12.75;;;9.35;;
67930;SDS011;63902;52.000;5.954;2023-05-06T01:35:45;16.90;;;10.35;;
67930;SDS011;63902;52.000;5.954;2023-05-06T01:36:53;14.18;;;9.35;;
67930;SDS011;63902;52.000;5.954;2023-05-06T01:38:08;13.25;;;9.43;;
67930;SDS011;63902;52.000;5.954;2023-05-06T01:39:17;14.77;;;10.07;;
67930;SDS011;63902;52.000;5.954;2023-05-06T01:40:24;13.23;;;9.57;;
67930;SDS011;63902;52.000;5.954;2023-05-06T01:41:26;16.77;;;10.13;;
67930;SDS011;63902;52.000;5.954;2023-05-06T01:42:30;17.48;;;9.32;;
67930;SDS011;63902;52.000;5.954;2023-05-06T01:43:33;12.63;;;9.43;;
67930;SDS011;63902;52.000;5.954;2023-05-06T01:44:39;15.18;;;9.95;;
67930;SDS011;63902;52.000;5.954;2023-05-06T01:45:40;19.40;;;10.18;;
67930;SDS011;63902;52.000;5.954;2023-05-06T01:46:42;17.38;;;10.43;;
67930;SDS011;63902;52.000;5.954;2023-05-06T01:47:44;15.55;;;10.13;;
67930;SDS011;63902;52.000;5.954;2023-05-06T01:48:46;17.98;;;10.88;;
67930;SDS011;63902;52.000;5.954;2023-05-06T01:49:49;16.75;;;11.20;;
67930;SDS011;63902;52.000;5.954;2023-05-06T01:50:50;15.65;;;10.63;;
67930;SDS011;63902;52.000;5.954;2023-05-06T01:51:51;18.25;;;10.32;;
67930;SDS011;63902;52.000;5.954;2023-05-06T01:52:58;18.30;;;10.85;;
67930;SDS011;63902;52.000;5.954;2023-05-06T01:54:00;15.10;;;11.32;;
67930;SDS011;63902;52.000;5.954;2023-05-06T01:55:02;17.73;;;11.25;;
67930;SDS011;63902;52.000;5.954;2023-05-06T01:56:03;17.80;;;11.93;;
67930;SDS011;63902;52.000;5.954;2023-05-06T01:57:05;19.95;;;11.32;;
67930;SDS011;63902;52.000;5.954;2023-05-06T01:58:05;16.08;;;11.57;;
67930;SDS011;63902;52.000;5.954;2023-05-06T01:59:06;17.58;;;12.48;;
67930;SDS011;63902;52.000;5.954;2023-05-06T02:00:07;15.20;;;10.50;;
67930;SDS011;63902;52.000;5.954;2023-05-06T02:01:08;18.00;;;11.25;;
67930;SDS011;63902;52.000;5.954;2023-05-06T02:02:09;17.23;;;10.82;;
67930;SDS011;63902;52.000;5.954;2023-05-06T02:03:09;18.73;;;11.23;;
67930;SDS011;63902;52.000;5.954;2023-05-06T02:04:09;21.85;;;11.60;;
67930;SDS011;63902;52.000;5.954;2023-05-06T02:05:10;17.52;;;10.80;;
67930;SDS011;63902;52.000;5.954;2023-05-06T02:06:10;16.33;;;11.00;;
67930;SDS011;63902;52.000;5.954;2023-05-06T02:07:11;18.33;;;11.00;;
67930;SDS011;63902;52.000;5.954;2023-05-06T02:08:11;16.77;;;11.38;;
67930;SDS011;63902;52.000;5.954;2023-05-06T02:09:12;18.55;;;11.13;;
67930;SDS011;63902;52.000;5.954;2023-05-06T02:10:14;18.27;;;11.60;;
67930;SDS011;63902;52.000;5.954;2023-05-06T02:11:14;21.05;;;11.93;;
67930;SDS011;63902;52.000;5.954;2023-05-06T02:12:15;17.35;;;12.43;;
67930;SDS011;63902;52.000;5.954;2023-05-06T02:13:16;20.65;;;13.88;;
67930;SDS011;63902;52.000;5.954;2023-05-06T02:14:17;22.92;;;12.85;;
67930;SDS011;63902;52.000;5.954;2023-05-06T02:15:17;18.08;;;12.20;;
67930;SDS011;63902;52.000;5.954;2023-05-06T02:16:18;20.02;;;12.65;;
67930;SDS011;63902;52.000;5.954;2023-05-06T02:17:19;21.30;;;13.52;;
67930;SDS011;63902;52.000;5.954;2023-05-06T02:18:19;20.48;;;13.32;;
67930;SDS011;63902;52.000;5.954;2023-05-06T02:19:20;20.50;;;12.95;;
67930;SDS011;63902;52.000;5.954;2023-05-06T02:20:20;21.42;;;13.38;;
67930;SDS011;63902;52.000;5.954;2023-05-06T02:21:21;23.08;;;13.48;;
67930;SDS011;63902;52.000;5.954;2023-05-06T02:22:22;19.92;;;13.15;;
67930;SDS011;63902;52.000;5.954;2023-05-06T02:23:22;17.58;;;12.38;;
67930;SDS011;63902;52.000;5.954;2023-05-06T02:24:23;17.02;;;11.80;;
67930;SDS011;63902;52.000;5.954;2023-05-06T02:25:25;19.63;;;12.35;;
67930;SDS011;63902;52.000;5.954;2023-05-06T02:26:25;18.88;;;12.18;;
67930;SDS011;63902;52.000;5.954;2023-05-06T02:27:26;17.92;;;11.80;;
67930;SDS011;63902;52.000;5.954;2023-05-06T02:28:26;17.25;;;11.55;;
67930;SDS011;63902;52.000;5.954;2023-05-06T02:29:27;18.13;;;12.15;;
67930;SDS011;63902;52.000;5.954;2023-05-06T02:30:27;17.27;;;11.95;;
67930;SDS011;63902;52.000;5.954;2023-05-06T02:31:28;17.35;;;12.32;;
67930;SDS011;63902;52.000;5.954;2023-05-06T02:32:28;18.00;;;12.35;;
67930;SDS011;63902;52.000;5.954;2023-05-06T02:33:29;20.95;;;12.30;;
67930;SDS011;63902;52.000;5.954;2023-05-06T02:34:29;17.40;;;12.35;;
67930;SDS011;63902;52.000;5.954;2023-05-06T02:35:30;18.35;;;13.05;;
67930;SDS011;63902;52.000;5.954;2023-05-06T02:36:30;19.95;;;12.63;;
67930;SDS011;63902;52.000;5.954;2023-05-06T02:37:30;20.67;;;12.45;;
67930;SDS011;63902;52.000;5.954;2023-05-06T02:38:31;16.38;;;11.35;;
67930;SDS011;63902;52.000;5.954;2023-05-06T02:39:31;17.52;;;12.68;;
67930;SDS011;63902;52.000;5.954;2023-05-06T02:40:33;16.40;;;11.68;;
67930;SDS011;63902;52.000;5.954;2023-05-06T02:41:34;14.13;;;11.15;;
67930;SDS011;63902;52.000;5.954;2023-05-06T02:42:34;17.73;;;11.98;;
67930;SDS011;63902;52.000;5.954;2023-05-06T02:43:35;22.25;;;12.88;;
67930;SDS011;63902;52.000;5.954;2023-05-06T02:44:35;21.55;;;11.77;;
67930;SDS011;63902;52.000;5.954;2023-05-06T02:45:36;19.05;;;12.77;;
67930;SDS011;63902;52.000;5.954;2023-05-06T02:46:36;18.65;;;12.15;;
67930;SDS011;63902;52.000;5.954;2023-05-06T02:47:37;24.35;;;12.52;;
67930;SDS011;63902;52.000;5.954;2023-05-06T02:48:37;18.70;;;12.65;;
67930;SDS011;63902;52.000;5.954;2023-05-06T02:49:38;27.48;;;12.95;;
67930;SDS011;63902;52.000;5.954;2023-05-06T02:50:39;23.38;;;13.65;;
67930;SDS011;63902;52.000;5.954;2023-05-06T02:51:39;21.42;;;13.27;;
67930;SDS011;63902;52.000;5.954;2023-05-06T02:52:40;20.77;;;13.77;;
67930;SDS011;63902;52.000;5.954;2023-05-06T02:53:40;25.88;;;14.30;;
67930;SDS011;63902;52.000;5.954;2023-05-06T02:54:40;39.55;;;14.98;;
67930;SDS011;63902;52.000;5.954;2023-05-06T02:55:42;21.90;;;13.75;;
67930;SDS011;63902;52.000;5.954;2023-05-06T02:56:43;27.35;;;14.93;;
67930;SDS011;63902;52.000;5.954;2023-05-06T02:57:43;27.30;;;15.05;;
67930;SDS011;63902;52.000;5.954;2023-05-06T02:58:44;47.90;;;15.60;;
67930;SDS011;63902;52.000;5.954;2023-05-06T02:59:44;31.02;;;15.32;;
67930;SDS011;63902;52.000;5.954;2023-05-06T03:00:45;48.17;;;15.77;;
67930;SDS011;63902;52.000;5.954;2023-05-06T03:01:45;28.67;;;14.80;;
67930;SDS011;63902;52.000;5.954;2023-05-06T03:02:46;28.05;;;15.00;;
67930;SDS011;63902;52.000;5.954;2023-05-06T03:03:46;27.83;;;15.23;;
67930;SDS011;63902;52.000;5.954;2023-05-06T03:04:46;29.17;;;14.95;;
67930;SDS011;63902;52.000;5.954;2023-05-06T03:05:47;39.40;;;14.77;;
67930;SDS011;63902;52.000;5.954;2023-05-06T03:06:47;31.70;;;15.23;;
67930;SDS011;63902;52.000;5.954;2023-05-06T03:07:48;46.45;;;16.02;;
67930;SDS011;63902;52.000;5.954;2023-05-06T03:08:49;32.47;;;14.70;;
67930;SDS011;63902;52.000;5.954;2023-05-06T03:09:49;39.13;;;16.10;;
67930;SDS011;63902;52.000;5.954;2023-05-06T03:10:51;39.25;;;15.65;;
67930;SDS011;63902;52.000;5.954;2023-05-06T03:11:51;35.83;;;16.08;;
67930;SDS011;63902;52.000;5.954;2023-05-06T03:12:52;58.38;;;16.05;;
67930;SDS011;63902;52.000;5.954;2023-05-06T03:13:52;129.85;;;17.35;;
67930;SDS011;63902;52.000;5.954;2023-05-06T03:14:53;123.47;;;17.80;;
67930;SDS011;63902;52.000;5.954;2023-05-06T03:15:53;148.05;;;17.80;;
67930;SDS011;63902;52.000;5.954;2023-05-06T03:16:54;131.25;;;17.13;;
67930;SDS011;63902;52.000;5.954;2023-05-06T03:17:54;83.55;;;16.38;;
67930;SDS011;63902;52.000;5.954;2023-05-06T03:18:55;281.27;;;19.30;;
67930;SDS011;63902;52.000;5.954;2023-05-06T03:19:55;46.25;;;16.23;;
67930;SDS011;63902;52.000;5.954;2023-05-06T03:20:55;69.57;;;17.27;;
67930;SDS011;63902;52.000;5.954;2023-05-06T03:21:56;68.15;;;16.98;;
67930;SDS011;63902;52.000;5.954;2023-05-06T03:22:56;134.63;;;17.95;;
67930;SDS011;63902;52.000;5.954;2023-05-06T03:23:57;48.83;;;16.52;;
67930;SDS011;63902;52.000;5.954;2023-05-06T03:24:58;44.97;;;16.83;;
67930;SDS011;63902;52.000;5.954;2023-05-06T03:26:00;44.13;;;17.08;;
67930;SDS011;63902;52.000;5.954;2023-05-06T03:27:00;232.75;;;21.83;;
67930;SDS011;63902;52.000;5.954;2023-05-06T03:28:00;33.13;;;17.23;;
67930;SDS011;63902;52.000;5.954;2023-05-06T03:29:01;26.10;;;15.82;;
67930;SDS011;63902;52.000;5.954;2023-05-06T03:30:02;32.08;;;16.23;;
67930;SDS011;63902;52.000;5.954;2023-05-06T03:31:02;38.15;;;16.35;;
67930;SDS011;63902;52.000;5.954;2023-05-06T03:32:03;28.02;;;15.57;;
67930;SDS011;63902;52.000;5.954;2023-05-06T03:33:04;27.35;;;15.35;;
67930;SDS011;63902;52.000;5.954;2023-05-06T03:34:04;24.80;;;15.25;;
67930;SDS011;63902;52.000;5.954;2023-05-06T03:35:05;27.50;;;15.20;;
67930;SDS011;63902;52.000;5.954;2023-05-06T03:36:06;27.52;;;16.17;;
67930;SDS011;63902;52.000;5.954;2023-05-06T03:37:06;29.00;;;16.17;;
67930;SDS011;63902;52.000;5.954;2023-05-06T03:38:07;41.20;;;15.63;;
67930;SDS011;63902;52.000;5.954;2023-05-06T03:39:07;59.17;;;15.60;;
67930;SDS011;63902;52.000;5.954;2023-05-06T03:40:08;107.13;;;16.30;;
67930;SDS011;63902;52.000;5.954;2023-05-06T03:41:10;56.03;;;14.98;;
67930;SDS011;63902;52.000;5.954;2023-05-06T03:42:11;27.92;;;17.27;;
67930;SDS011;63902;52.000;5.954;2023-05-06T03:43:11;34.22;;;14.88;;
67930;SDS011;63902;52.000;5.954;2023-05-06T03:44:12;24.65;;;14.60;;
67930;SDS011;63902;52.000;5.954;2023-05-06T03:45:12;23.75;;;14.80;;
67930;SDS011;63902;52.000;5.954;2023-05-06T03:46:13;25.10;;;14.18;;
67930;SDS011;63902;52.000;5.954;2023-05-06T03:47:13;25.75;;;13.73;;
67930;SDS011;63902;52.000;5.954;2023-05-06T03:48:14;23.30;;;14.40;;
67930;SDS011;63902;52.000;5.954;2023-05-06T03:49:14;25.77;;;14.90;;
67930;SDS011;63902;52.000;5.954;2023-05-06T03:50:15;22.20;;;14.20;;
67930;SDS011;63902;52.000;5.954;2023-05-06T03:51:15;25.83;;;14.20;;
67930;SDS011;63902;52.000;5.954;2023-05-06T03:52:16;21.63;;;13.82;;
67930;SDS011;63902;52.000;5.954;2023-05-06T03:53:16;22.92;;;14.70;;
67930;SDS011;63902;52.000;5.954;2023-05-06T03:54:17;21.65;;;14.65;;
67930;SDS011;63902;52.000;5.954;2023-05-06T03:55:18;24.38;;;15.35;;
67930;SDS011;63902;52.000;5.954;2023-05-06T03:56:20;26.52;;;16.23;;
67930;SDS011;63902;52.000;5.954;2023-05-06T03:57:20;26.20;;;14.55;;
67930;SDS011;63902;52.000;5.954;2023-05-06T03:58:20;32.40;;;15.80;;
67930;SDS011;63902;52.000;5.954;2023-05-06T03:59:21;30.13;;;16.05;;
67930;SDS011;63902;52.000;5.954;2023-05-06T04:00:22;27.13;;;15.50;;
67930;SDS011;63902;52.000;5.954;2023-05-06T04:01:22;23.67;;;14.05;;
67930;SDS011;63902;52.000;5.954;2023-05-06T04:02:23;49.03;;;16.27;;
67930;SDS011;63902;52.000;5.954;2023-05-06T04:03:23;36.50;;;16.65;;
67930;SDS011;63902;52.000;5.954;2023-05-06T04:04:24;56.28;;;16.27;;
67930;SDS011;63902;52.000;5.954;2023-05-06T04:05:24;56.95;;;17.08;;
67930;SDS011;63902;52.000;5.954;2023-05-06T04:06:25;96.07;;;18.42;;
67930;SDS011;63902;52.000;5.954;2023-05-06T04:07:25;102.57;;;17.50;;
67930;SDS011;63902;52.000;5.954;2023-05-06T04:08:26;47.15;;;17.23;;
67930;SDS011;63902;52.000;5.954;2023-05-06T04:09:26;102.60;;;16.80;;
67930;SDS011;63902;52.000;5.954;2023-05-06T04:10:27;157.77;;;18.60;;
67930;SDS011;63902;52.000;5.954;2023-05-06T04:11:29;149.65;;;17.70;;
67930;SDS011;63902;52.000;5.954;2023-05-06T04:12:29;285.38;;;19.75;;
67930;SDS011;63902;52.000;5.954;2023-05-06T04:13:30;189.60;;;18.42;;
67930;SDS011;63902;52.000;5.954;2023-05-06T04:14:30;229.27;;;18.90;;
67930;SDS011;63902;52.000;5.954;2023-05-06T04:15:31;247.23;;;18.55;;
67930;SDS011;63902;52.000;5.954;2023-05-06T04:16:31;341.63;;;19.83;;
67930;SDS011;63902;52.000;5.954;2023-05-06T04:17:32;362.17;;;20.42;;
67930;SDS011;63902;52.000;5.954;2023-05-06T04:18:32;264.17;;;19.05;;
67930;SDS011;63902;52.000;5.954;2023-05-06T04:19:33;96.85;;;15.48;;
67930;SDS011;63902;52.000;5.954;2023-05-06T04:20:33;61.78;;;16.23;;
67930;SDS011;63902;52.000;5.954;2023-05-06T04:21:34;226.90;;;17.25;;
67930;SDS011;63902;52.000;5.954;2023-05-06T04:22:34;66.55;;;16.25;;
67930;SDS011;63902;52.000;5.954;2023-05-06T04:23:34;82.43;;;16.15;;
67930;SDS011;63902;52.000;5.954;2023-05-06T04:24:35;89.75;;;16.48;;
67930;SDS011;63902;52.000;5.954;2023-05-06T04:25:35;168.57;;;16.92;;
67930;SDS011;63902;52.000;5.954;2023-05-06T04:26:38;79.97;;;15.15;;
67930;SDS011;63902;52.000;5.954;2023-05-06T04:27:39;66.28;;;15.43;;
67930;SDS011;63902;52.000;5.954;2023-05-06T04:28:39;87.50;;;15.05;;
67930;SDS011;63902;52.000;5.954;2023-05-06T04:29:40;194.73;;;16.60;;
67930;SDS011;63902;52.000;5.954;2023-05-06T04:30:40;247.75;;;17.33;;
67930;SDS011;63902;52.000;5.954;2023-05-06T04:31:41;154.63;;;15.63;;
67930;SDS011;63902;52.000;5.954;2023-05-06T04:32:41;97.72;;;14.48;;
67930;SDS011;63902;52.000;5.954;2023-05-06T04:33:42;222.50;;;17.30;;
67930;SDS011;63902;52.000;5.954;2023-05-06T04:34:42;110.80;;;13.90;;
67930;SDS011;63902;52.000;5.954;2023-05-06T04:35:48;208.85;;;14.77;;
67930;SDS011;63902;52.000;5.954;2023-05-06T04:36:49;109.32;;;13.30;;
67930;SDS011;63902;52.000;5.954;2023-05-06T04:37:50;123.60;;;13.85;;
67930;SDS011;63902;52.000;5.954;2023-05-06T04:38:50;68.47;;;14.88;;
67930;SDS011;63902;52.000;5.954;2023-05-06T04:39:51;100.15;;;13.90;;
67930;SDS011;63902;52.000;5.954;2023-05-06T04:40:52;36.30;;;13.15;;
67930;SDS011;63902;52.000;5.954;2023-05-06T04:41:54;16.80;;;12.50;;
67930;SDS011;63902;52.000;5.954;2023-05-06T04:42:54;43.47;;;14.20;;
67930;SDS011;63902;52.000;5.954;2023-05-06T04:43:55;21.35;;;12.82;;
67930;SDS011;63902;52.000;5.954;2023-05-06T04:44:55;38.92;;;12.65;;
67930;SDS011;63902;52.000;5.954;2023-05-06T04:45:56;80.85;;;13.70;;
67930;SDS011;63902;52.000;5.954;2023-05-06T04:46:56;58.97;;;13.35;;
67930;SDS011;63902;52.000;5.954;2023-05-06T04:47:56;21.20;;;12.60;;
67930;SDS011;63902;52.000;5.954;2023-05-06T04:48:57;53.35;;;13.68;;
67930;SDS011;63902;52.000;5.954;2023-05-06T04:49:58;35.38;;;13.98;;
67930;SDS011;63902;52.000;5.954;2023-05-06T04:50:58;110.03;;;13.85;;
67930;SDS011;63902;52.000;5.954;2023-05-06T04:51:59;26.25;;;11.98;;
67930;SDS011;63902;52.000;5.954;2023-05-06T04:52:59;41.40;;;11.93;;
67930;SDS011;63902;52.000;5.954;2023-05-06T04:53:59;19.65;;;12.05;;
67930;SDS011;63902;52.000;5.954;2023-05-06T04:55:00;57.25;;;13.02;;
67930;SDS011;63902;52.000;5.954;2023-05-06T04:56:00;30.20;;;11.52;;
67930;SDS011;63902;52.000;5.954;2023-05-06T04:57:02;20.73;;;11.73;;
67930;SDS011;63902;52.000;5.954;2023-05-06T04:58:03;78.00;;;12.65;;
67930;SDS011;63902;52.000;5.954;2023-05-06T04:59:03;22.42;;;11.93;;
67930;SDS011;63902;52.000;5.954;2023-05-06T05:00:04;20.73;;;12.68;;
67930;SDS011;63902;52.000;5.954;2023-05-06T05:01:07;28.80;;;11.60;;
67930;SDS011;63902;52.000;5.954;2023-05-06T05:02:08;17.35;;;12.10;;
67930;SDS011;63902;52.000;5.954;2023-05-06T05:03:08;24.63;;;12.45;;
67930;SDS011;63902;52.000;5.954;2023-05-06T05:04:09;19.02;;;12.80;;
67930;SDS011;63902;52.000;5.954;2023-05-06T05:05:09;14.25;;;11.52;;
67930;SDS011;63902;52.000;5.954;2023-05-06T05:06:10;22.35;;;11.18;;
67930;SDS011;63902;52.000;5.954;2023-05-06T05:07:10;105.07;;;12.60;;
67930;SDS011;63902;52.000;5.954;2023-05-06T05:08:11;47.92;;;11.20;;
67930;SDS011;63902;52.000;5.954;2023-05-06T05:09:11;32.75;;;11.02;;
67930;SDS011;63902;52.000;5.954;2023-05-06T05:10:12;21.63;;;11.57;;
67930;SDS011;63902;52.000;5.954;2023-05-06T05:11:13;60.80;;;12.27;;
67930;SDS011;63902;52.000;5.954;2023-05-06T05:12:15;40.05;;;11.65;;
67930;SDS011;63902;52.000;5.954;2023-05-06T05:13:15;49.05;;;11.90;;
67930;SDS011;63902;52.000;5.954;2023-05-06T05:14:15;16.60;;;12.38;;
67930;SDS011;63902;52.000;5.954;2023-05-06T05:15:16;24.35;;;12.25;;
67930;SDS011;63902;52.000;5.954;2023-05-06T05:16:17;122.20;;;12.93;;
67930;SDS011;63902;52.000;5.954;2023-05-06T05:17:17;44.30;;;11.75;;
67930;SDS011;63902;52.000;5.954;2023-05-06T05:18:18;27.42;;;11.40;;
67930;SDS011;63902;52.000;5.954;2023-05-06T05:19:18;73.60;;;11.82;;
67930;SDS011;63902;52.000;5.954;2023-05-06T05:20:19;220.07;;;14.95;;
67930;SDS011;63902;52.000;5.954;2023-05-06T05:21:19;204.77;;;14.65;;
67930;SDS011;63902;52.000;5.954;2023-05-06T05:22:20;58.03;;;12.15;;
67930;SDS011;63902;52.000;5.954;2023-05-06T05:23:20;26.75;;;12.68;;
67930;SDS011;63902;52.000;5.954;2023-05-06T05:24:21;246.35;;;14.85;;
67930;SDS011;63902;52.000;5.954;2023-05-06T05:25:21;118.45;;;12.32;;
67930;SDS011;63902;52.000;5.954;2023-05-06T05:26:22;61.20;;;12.48;;
67930;SDS011;63902;52.000;5.954;2023-05-06T05:27:24;356.98;;;17.33;;
67930;SDS011;63902;52.000;5.954;2023-05-06T05:28:24;234.68;;;15.43;;
67930;SDS011;63902;52.000;5.954;2023-05-06T05:29:25;29.63;;;12.60;;
67930;SDS011;63902;52.000;5.954;2023-05-06T05:30:25;45.58;;;14.13;;
67930;SDS011;63902;52.000;5.954;2023-05-06T05:31:26;30.30;;;12.40;;
67930;SDS011;63902;52.000;5.954;2023-05-06T05:32:26;19.00;;;12.13;;
67930;SDS011;63902;52.000;5.954;2023-05-06T05:33:26;120.07;;;13.27;;
67930;SDS011;63902;52.000;5.954;2023-05-06T05:34:27;57.10;;;12.00;;
67930;SDS011;63902;52.000;5.954;2023-05-06T05:35:28;47.45;;;12.57;;
67930;SDS011;63902;52.000;5.954;2023-05-06T05:36:29;150.48;;;13.65;;
67930;SDS011;63902;52.000;5.954;2023-05-06T05:37:29;22.10;;;11.48;;
67930;SDS011;63902;52.000;5.954;2023-05-06T05:38:30;92.18;;;12.80;;
67930;SDS011;63902;52.000;5.954;2023-05-06T05:39:30;124.10;;;13.38;;
67930;SDS011;63902;52.000;5.954;2023-05-06T05:40:31;184.88;;;13.40;;
67930;SDS011;63902;52.000;5.954;2023-05-06T05:41:31;107.57;;;14.05;;
67930;SDS011;63902;52.000;5.954;2023-05-06T05:42:33;74.13;;;13.25;;
67930;SDS011;63902;52.000;5.954;2023-05-06T05:43:34;53.47;;;12.32;;
67930;SDS011;63902;52.000;5.954;2023-05-06T05:44:34;27.02;;;12.18;;
67930;SDS011;63902;52.000;5.954;2023-05-06T05:45:35;31.60;;;12.75;;
67930;SDS011;63902;52.000;5.954;2023-05-06T05:46:35;129.13;;;13.77;;
67930;SDS011;63902;52.000;5.954;2023-05-06T05:47:36;62.67;;;12.80;;
67930;SDS011;63902;52.000;5.954;2023-05-06T05:48:36;183.10;;;13.85;;
67930;SDS011;63902;52.000;5.954;2023-05-06T05:49:37;178.30;;;15.32;;
67930;SDS011;63902;52.000;5.954;2023-05-06T05:50:37;80.60;;;13.68;;
67930;SDS011;63902;52.000;5.954;2023-05-06T05:51:38;147.35;;;13.48;;
67930;SDS011;63902;52.000;5.954;2023-05-06T05:52:38;102.43;;;12.95;;
67930;SDS011;63902;52.000;5.954;2023-05-06T05:53:39;85.32;;;14.10;;
67930;SDS011;63902;52.000;5.954;2023-05-06T05:54:39;19.02;;;12.55;;
67930;SDS011;63902;52.000;5.954;2023-05-06T05:55:39;46.30;;;13.50;;
67930;SDS011;63902;52.000;5.954;2023-05-06T05:56:40;38.60;;;13.05;;
67930;SDS011;63902;52.000;5.954;2023-05-06T05:57:42;21.48;;;12.27;;
67930;SDS011;63902;52.000;5.954;2023-05-06T05:58:42;18.88;;;12.60;;
67930;SDS011;63902;52.000;5.954;2023-05-06T05:59:43;20.60;;;13.68;;